sensor_id;sensor_type;location;lat;lon;timestamp;pressure;altitude;pressure_sealevel;temperature;humidity
10720;BME280;5411;58.386;15.560;2023-03-20T00:02:04;100105.66;;;8.49;100.00
10720;BME280;5411;58.386;15.560;2023-03-20T00:04:35;100105.47;;;8.50;100.00
10720;BME280;5411;58.386;15.560;2023-03-20T00:07:03;100095.00;;;8.49;100.00
10720;BME280;5411;58.386;15.560;2023-03-20T00:09:36;100095.19;;;8.47;100.00
10720;BME280;5411;58.386;15.560;2023-03-20T00:12:04;100085.72;;;8.45;100.00
10720;BME280;5411;58.386;15.560;2023-03-20T00:14:33;100087.56;;;8.44;100.00
10720;BME280;5411;58.386;15.560;2023-03-20T00:17:08;100084.91;;;8.44;100.00
10720;BME280;5411;58.386;15.560;2023-03-20T00:19:39;100087.56;;;8.44;100.00
10720;BME280;5411;58.386;15.560;2023-03-20T00:22:08;100084.06;;;8.44;100.00
10720;BME280;5411;58.386;15.560;2023-03-20T00:24:36;100069.91;;;8.37;100.00
10720;BME280;5411;58.386;15.560;2023-03-20T00:27:05;100063.94;;;8.35;100.00
10720;BME280;5411;58.386;15.560;2023-03-20T00:29:33;100061.47;;;8.33;100.00
10720;BME280;5411;58.386;15.560;2023-03-20T00:32:01;100059.81;;;8.32;100.00
10720;BME280;5411;58.386;15.560;2023-03-20T00:34:30;100053.00;;;8.30;100.00
10720;BME280;5411;58.386;15.560;2023-03-20T00:36:59;100053.47;;;8.33;100.00
10720;BME280;5411;58.386;15.560;2023-03-20T00:39:28;100050.78;;;8.33;100.00
10720;BME280;5411;58.386;15.560;2023-03-20T00:42:00;100048.31;;;8.32;100.00
10720;BME280;5411;58.386;15.560;2023-03-20T00:44:54;100039.47;;;8.31;100.00
10720;BME280;5411;58.386;15.560;2023-03-20T00:47:47;100045.00;;;8.30;100.00
10720;BME280;5411;58.386;15.560;2023-03-20T00:50:17;100041.50;;;8.29;100.00
10720;BME280;5411;58.386;15.560;2023-03-20T00:52:49;100044.81;;;8.31;100.00
10720;BME280;5411;58.386;15.560;2023-03-20T00:55:19;100026.16;;;8.31;100.00
10720;BME280;5411;58.386;15.560;2023-03-20T00:57:50;100027.81;;;8.32;100.00
10720;BME280;5411;58.386;15.560;2023-03-20T01:00:24;100028.00;;;8.31;100.00
10720;BME280;5411;58.386;15.560;2023-03-20T01:02:55;100026.53;;;8.28;100.00
10720;BME280;5411;58.386;15.560;2023-03-20T01:05:24;100028.38;;;8.28;100.00
10720;BME280;5411;58.386;15.560;2023-03-20T01:07:56;100019.56;;;8.27;100.00
10720;BME280;5411;58.386;15.560;2023-03-20T01:10:27;100021.41;;;8.27;100.00
10720;BME280;5411;58.386;15.560;2023-03-20T01:12:59;100012.19;;;8.29;100.00
10720;BME280;5411;58.386;15.560;2023-03-20T01:15:31;100017.72;;;8.28;100.00
10720;BME280;5411;58.386;15.560;2023-03-20T01:18:05;100011.16;;;8.30;100.00
10720;BME280;5411;58.386;15.560;2023-03-20T01:20:33;100008.50;;;8.30;100.00
10720;BME280;5411;58.386;15.560;2023-03-20T01:23:03;100008.34;;;8.32;100.00
10720;BME280;5411;58.386;15.560;2023-03-20T01:25:31;100007.50;;;8.31;100.00
10720;BME280;5411;58.386;15.560;2023-03-20T01:28:01;100008.69;;;8.29;100.00
10720;BME280;5411;58.386;15.560;2023-03-20T01:30:31;100011.38;;;8.29;100.00
10720;BME280;5411;58.386;15.560;2023-03-20T01:33:00;100004.00;;;8.31;100.00
10720;BME280;5411;58.386;15.560;2023-03-20T01:35:29;100010.34;;;8.30;100.00
10720;BME280;5411;58.386;15.560;2023-03-20T01:37:58;100000.50;;;8.30;100.00
10720;BME280;5411;58.386;15.560;2023-03-20T01:40:31;100010.00;;;8.33;100.00
10720;BME280;5411;58.386;15.560;2023-03-20T01:43:00;99998.31;;;8.34;100.00
10720;BME280;5411;58.386;15.560;2023-03-20T01:45:33;99993.81;;;8.34;100.00
10720;BME280;5411;58.386;15.560;2023-03-20T01:48:11;99993.63;;;8.36;100.00
10720;BME280;5411;58.386;15.560;2023-03-20T01:50:42;99989.31;;;8.35;100.00
10720;BME280;5411;58.386;15.560;2023-03-20T01:53:13;99985.41;;;8.37;100.00
10720;BME280;5411;58.386;15.560;2023-03-20T01:55:44;99989.50;;;8.40;100.00
10720;BME280;5411;58.386;15.560;2023-03-20T01:58:17;99978.03;;;8.39;100.00
10720;BME280;5411;58.386;15.560;2023-03-20T02:00:47;99982.34;;;8.40;100.00
10720;BME280;5411;58.386;15.560;2023-03-20T02:03:16;99978.03;;;8.39;100.00
10720;BME280;5411;58.386;15.560;2023-03-20T02:05:45;99977.00;;;8.40;100.00
10720;BME280;5411;58.386;15.560;2023-03-20T02:08:22;99971.91;;;8.39;100.00
10720;BME280;5411;58.386;15.560;2023-03-20T02:10:55;99969.63;;;8.42;100.00
10720;BME280;5411;58.386;15.560;2023-03-20T02:13:25;99966.78;;;8.44;100.00
10720;BME280;5411;58.386;15.560;2023-03-20T02:15:58;99967.22;;;8.47;100.00
10720;BME280;5411;58.386;15.560;2023-03-20T02:18:26;99962.50;;;8.49;100.00
10720;BME280;5411;58.386;15.560;2023-03-20T02:24:44;99948.56;;;8.47;100.00
10720;BME280;5411;58.386;15.560;2023-03-20T02:27:30;99948.75;;;8.46;100.00
10720;BME280;5411;58.386;15.560;2023-03-20T02:30:30;99938.47;;;8.43;100.00
10720;BME280;5411;58.386;15.560;2023-03-20T02:39:41;99921.38;;;8.31;100.00
10720;BME280;5411;58.386;15.560;2023-03-20T02:42:18;99927.28;;;8.26;100.00
10720;BME280;5411;58.386;15.560;2023-03-20T02:44:57;99911.09;;;8.21;100.00
10720;BME280;5411;58.386;15.560;2023-03-20T02:47:36;99906.97;;;8.18;100.00
10720;BME280;5411;58.386;15.560;2023-03-20T02:50:12;99904.13;;;8.20;100.00
10720;BME280;5411;58.386;15.560;2023-03-20T02:52:47;99902.91;;;8.22;100.00
10720;BME280;5411;58.386;15.560;2023-03-20T02:55:27;99892.06;;;8.24;100.00
10720;BME280;5411;58.386;15.560;2023-03-20T02:58:04;99894.09;;;8.22;100.00
10720;BME280;5411;58.386;15.560;2023-03-20T03:00:39;99885.47;;;8.20;100.00
10720;BME280;5411;58.386;15.560;2023-03-20T03:03:12;99889.53;;;8.16;100.00
10720;BME280;5411;58.386;15.560;2023-03-20T03:05:49;99890.16;;;8.11;100.00
10720;BME280;5411;58.386;15.560;2023-03-20T03:08:21;99896.50;;;8.10;100.00
10720;BME280;5411;58.386;15.560;2023-03-20T03:10:57;99889.53;;;8.09;100.00
10720;BME280;5411;58.386;15.560;2023-03-20T03:13:29;99882.16;;;8.11;100.00
10720;BME280;5411;58.386;15.560;2023-03-20T03:16:00;99877.84;;;8.10;100.00
10720;BME280;5411;58.386;15.560;2023-03-20T03:18:32;99886.44;;;8.12;100.00
10720;BME280;5411;58.386;15.560;2023-03-20T03:21:04;99878.25;;;8.14;100.00
10720;BME280;5411;58.386;15.560;2023-03-20T03:23:41;99870.06;;;8.15;100.00
10720;BME280;5411;58.386;15.560;2023-03-20T03:26:13;99862.69;;;8.17;100.00
10720;BME280;5411;58.386;15.560;2023-03-20T03:28:48;99859.00;;;8.18;100.00
10720;BME280;5411;58.386;15.560;2023-03-20T03:31:18;99865.78;;;8.21;100.00
10720;BME280;5411;58.386;15.560;2023-03-20T03:33:49;99850.81;;;8.20;100.00
10720;BME280;5411;58.386;15.560;2023-03-20T03:36:26;99854.13;;;8.22;100.00
10720;BME280;5411;58.386;15.560;2023-03-20T03:39:00;99850.63;;;8.21;100.00
10720;BME280;5411;58.386;15.560;2023-03-20T03:41:35;99840.16;;;8.20;100.00
10720;BME280;5411;58.386;15.560;2023-03-20T03:44:11;99834.22;;;8.18;100.00
10720;BME280;5411;58.386;15.560;2023-03-20T03:46:46;99839.53;;;8.18;100.00
10720;BME280;5411;58.386;15.560;2023-03-20T03:49:19;99829.47;;;8.13;100.00
10720;BME280;5411;58.386;15.560;2023-03-20T03:51:52;99835.41;;;8.09;100.00
10720;BME280;5411;58.386;15.560;2023-03-20T03:54:24;99836.84;;;8.05;100.00
10720;BME280;5411;58.386;15.560;2023-03-20T03:56:57;99835.56;;;8.01;100.00
10720;BME280;5411;58.386;15.560;2023-03-20T03:59:29;99841.53;;;7.96;100.00
10720;BME280;5411;58.386;15.560;2023-03-20T04:02:01;99839.44;;;7.92;100.00
10720;BME280;5411;58.386;15.560;2023-03-20T04:04:31;99836.53;;;7.86;100.00
10720;BME280;5411;58.386;15.560;2023-03-20T04:07:01;99830.63;;;7.84;100.00
10720;BME280;5411;58.386;15.560;2023-03-20T04:09:30;99822.41;;;7.86;100.00
10720;BME280;5411;58.386;15.560;2023-03-20T04:12:01;99823.22;;;7.86;100.00
10720;BME280;5411;58.386;15.560;2023-03-20T04:14:29;99821.59;;;7.85;100.00
10720;BME280;5411;58.386;15.560;2023-03-20T04:16:58;99822.22;;;7.87;100.00
10720;BME280;5411;58.386;15.560;2023-03-20T04:19:26;99820.16;;;7.90;100.00
10720;BME280;5411;58.386;15.560;2023-03-20T04:21:54;99824.91;;;7.94;100.00
10720;BME280;5411;58.386;15.560;2023-03-20T04:24:23;99828.19;;;7.96;100.00
10720;BME280;5411;58.386;15.560;2023-03-20T04:26:52;99826.38;;;7.97;100.00
10720;BME280;5411;58.386;15.560;2023-03-20T04:29:21;99821.66;;;7.99;100.00
10720;BME280;5411;58.386;15.560;2023-03-20T04:31:50;99820.63;;;8.00;100.00
10720;BME280;5411;58.386;15.560;2023-03-20T04:34:18;99828.41;;;8.01;100.00
10720;BME280;5411;58.386;15.560;2023-03-20T04:36:49;99819.19;;;8.04;100.00
10720;BME280;5411;58.386;15.560;2023-03-20T04:39:17;99824.34;;;8.05;100.00
10720;BME280;5411;58.386;15.560;2023-03-20T04:41:47;99819.19;;;8.04;100.00
10720;BME280;5411;58.386;15.560;2023-03-20T04:44:16;99820.84;;;8.05;100.00
10720;BME280;5411;58.386;15.560;2023-03-20T04:46:45;99816.34;;;8.05;100.00
10720;BME280;5411;58.386;15.560;2023-03-20T04:49:14;99813.28;;;8.08;100.00
10720;BME280;5411;58.386;15.560;2023-03-20T04:51:42;99812.47;;;8.08;100.00
10720;BME280;5411;58.386;15.560;2023-03-20T04:54:10;99802.63;;;8.08;100.00
10720;BME280;5411;58.386;15.560;2023-03-20T04:56:38;99809.59;;;8.09;100.00
10720;BME280;5411;58.386;15.560;2023-03-20T04:59:07;99810.22;;;8.11;100.00
10720;BME280;5411;58.386;15.560;2023-03-20T05:01:35;99803.84;;;8.12;100.00
10720;BME280;5411;58.386;15.560;2023-03-20T05:04:05;99808.97;;;8.14;100.00
10720;BME280;5411;58.386;15.560;2023-03-20T05:06:33;99806.31;;;8.14;100.00
10720;BME280;5411;58.386;15.560;2023-03-20T05:09:02;99810.44;;;8.16;100.00
10720;BME280;5411;58.386;15.560;2023-03-20T05:11:32;99803.06;;;8.18;100.00
10720;BME280;5411;58.386;15.560;2023-03-20T05:14:00;99802.25;;;8.18;100.00
10720;BME280;5411;58.386;15.560;2023-03-20T05:16:28;99801.84;;;8.21;100.00
10720;BME280;5411;58.386;15.560;2023-03-20T05:18:57;99798.97;;;8.22;100.00
10720;BME280;5411;58.386;15.560;2023-03-20T05:21:26;99787.31;;;8.23;100.00
10720;BME280;5411;58.386;15.560;2023-03-20T05:23:54;99789.97;;;8.23;100.00
10720;BME280;5411;58.386;15.560;2023-03-20T05:26:24;99789.16;;;8.23;100.00
10720;BME280;5411;58.386;15.560;2023-03-20T05:28:52;99791.38;;;8.26;100.00
10720;BME280;5411;58.386;15.560;2023-03-20T05:31:20;99790.38;;;8.27;100.00
10720;BME280;5411;58.386;15.560;2023-03-20T05:33:49;99788.31;;;8.29;100.00
10720;BME280;5411;58.386;15.560;2023-03-20T05:36:17;99785.66;;;8.29;100.00
10720;BME280;5411;58.386;15.560;2023-03-20T05:38:46;99793.28;;;8.32;100.00
10720;BME280;5411;58.386;15.560;2023-03-20T05:41:16;99792.06;;;8.35;100.00
10720;BME280;5411;58.386;15.560;2023-03-20T05:43:44;99788.19;;;8.37;100.00
10720;BME280;5411;58.386;15.560;2023-03-20T05:46:12;99776.69;;;8.37;100.00
10720;BME280;5411;58.386;15.560;2023-03-20T05:48:40;99773.59;;;8.40;100.00
10720;BME280;5411;58.386;15.560;2023-03-20T05:51:08;99780.56;;;8.41;100.00
10720;BME280;5411;58.386;15.560;2023-03-20T05:53:37;99774.84;;;8.44;100.00
10720;BME280;5411;58.386;15.560;2023-03-20T05:56:07;99774.25;;;8.48;100.00
10720;BME280;5411;58.386;15.560;2023-03-20T05:58:36;99774.03;;;8.50;100.00
10720;BME280;5411;58.386;15.560;2023-03-20T06:01:04;99772.78;;;8.52;100.00
10720;BME280;5411;58.386;15.560;2023-03-20T06:03:32;99773.00;;;8.57;100.00
10720;BME280;5411;58.386;15.560;2023-03-20T06:06:01;99772.63;;;8.61;100.00
10720;BME280;5411;58.386;15.560;2023-03-20T06:08:29;99778.56;;;8.63;100.00
10720;BME280;5411;58.386;15.560;2023-03-20T06:10:58;99775.25;;;8.67;100.00
10720;BME280;5411;58.386;15.560;2023-03-20T06:13:28;99778.97;;;8.73;100.00
10720;BME280;5411;58.386;15.560;2023-03-20T06:15:56;99768.72;;;8.76;100.00
10720;BME280;5411;58.386;15.560;2023-03-20T06:18:25;99775.88;;;8.82;100.00
10720;BME280;5411;58.386;15.560;2023-03-20T06:20:53;99783.06;;;8.88;100.00
10720;BME280;5411;58.386;15.560;2023-03-20T06:23:22;99770.94;;;8.92;100.00
10720;BME280;5411;58.386;15.560;2023-03-20T06:25:50;99769.50;;;8.97;100.00
10720;BME280;5411;58.386;15.560;2023-03-20T06:28:24;99765.22;;;9.02;100.00
10720;BME280;5411;58.386;15.560;2023-03-20T06:30:54;99756.34;;;9.08;100.00
10720;BME280;5411;58.386;15.560;2023-03-20T06:33:22;99759.03;;;9.15;100.00
10720;BME280;5411;58.386;15.560;2023-03-20T06:35:51;99762.50;;;9.22;100.00
10720;BME280;5411;58.386;15.560;2023-03-20T06:38:20;99759.00;;;9.28;100.00
10720;BME280;5411;58.386;15.560;2023-03-20T06:40:48;99748.91;;;9.37;100.00
10720;BME280;5411;58.386;15.560;2023-03-20T06:43:17;99756.28;;;9.41;100.00
10720;BME280;5411;58.386;15.560;2023-03-20T06:45:48;99756.25;;;9.48;100.00
10720;BME280;5411;58.386;15.560;2023-03-20T06:48:17;99755.84;;;9.51;100.00
10720;BME280;5411;58.386;15.560;2023-03-20T06:50:48;99748.25;;;9.54;100.00
10720;BME280;5411;58.386;15.560;2023-03-20T06:53:21;99749.47;;;9.58;100.00
10720;BME280;5411;58.386;15.560;2023-03-20T06:56:00;99748.66;;;9.58;100.00
10720;BME280;5411;58.386;15.560;2023-03-20T06:58:32;99746.78;;;9.58;100.00
10720;BME280;5411;58.386;15.560;2023-03-20T07:01:00;99747.00;;;9.57;100.00
10720;BME280;5411;58.386;15.560;2023-03-20T07:03:30;99741.66;;;9.57;100.00
10720;BME280;5411;58.386;15.560;2023-03-20T07:06:04;99736.53;;;9.55;100.00
10720;BME280;5411;58.386;15.560;2023-03-20T07:08:33;99731.81;;;9.51;100.00
10720;BME280;5411;58.386;15.560;2023-03-20T07:11:02;99731.00;;;9.50;100.00
10720;BME280;5411;58.386;15.560;2023-03-20T07:13:31;99735.09;;;9.53;100.00
10720;BME280;5411;58.386;15.560;2023-03-20T07:16:01;99720.50;;;9.55;100.00
10720;BME280;5411;58.386;15.560;2023-03-20T07:18:33;99721.31;;;9.56;100.00
10720;BME280;5411;58.386;15.560;2023-03-20T07:21:04;99730.78;;;9.58;100.00
10720;BME280;5411;58.386;15.560;2023-03-20T07:23:33;99736.47;;;9.62;100.00
10720;BME280;5411;58.386;15.560;2023-03-20T07:26:03;99729.06;;;9.71;100.00
10720;BME280;5411;58.386;15.560;2023-03-20T07:28:32;99726.78;;;9.74;100.00
10720;BME280;5411;58.386;15.560;2023-03-20T07:31:00;99729.44;;;9.81;100.00
10720;BME280;5411;58.386;15.560;2023-03-20T07:33:28;99738.66;;;9.85;100.00
10720;BME280;5411;58.386;15.560;2023-03-20T07:35:59;99731.84;;;9.89;100.00
10720;BME280;5411;58.386;15.560;2023-03-20T07:38:31;99736.34;;;9.95;100.00
10720;BME280;5411;58.386;15.560;2023-03-20T07:41:00;99731.56;;;10.04;100.00
10720;BME280;5411;58.386;15.560;2023-03-20T07:43:28;99739.91;;;10.14;100.00
10720;BME280;5411;58.386;15.560;2023-03-20T07:45:57;99733.75;;;10.20;100.00
10720;BME280;5411;58.386;15.560;2023-03-20T07:48:27;99732.94;;;10.19;100.00
10720;BME280;5411;58.386;15.560;2023-03-20T07:50:57;99729.81;;;10.22;100.00
10720;BME280;5411;58.386;15.560;2023-03-20T07:53:26;99721.81;;;10.22;100.00
10720;BME280;5411;58.386;15.560;2023-03-20T07:55:55;99737.84;;;10.22;100.00
10720;BME280;5411;58.386;15.560;2023-03-20T07:58:29;99742.97;;;10.24;100.00
10720;BME280;5411;58.386;15.560;2023-03-20T08:00:57;99736.41;;;10.20;100.00
10720;BME280;5411;58.386;15.560;2023-03-20T08:03:26;99734.97;;;10.24;100.00
10720;BME280;5411;58.386;15.560;2023-03-20T08:05:55;99737.78;;;10.29;100.00
10720;BME280;5411;58.386;15.560;2023-03-20T08:08:24;99734.25;;;10.35;100.00
10720;BME280;5411;58.386;15.560;2023-03-20T08:10:52;99734.69;;;10.32;100.00
10720;BME280;5411;58.386;15.560;2023-03-20T08:13:22;99732.03;;;10.25;100.00
10720;BME280;5411;58.386;15.560;2023-03-20T08:15:51;99732.28;;;10.24;100.00
10720;BME280;5411;58.386;15.560;2023-03-20T08:18:19;99737.63;;;10.17;100.00
10720;BME280;5411;58.386;15.560;2023-03-20T08:20:48;99737.91;;;10.09;100.00
10720;BME280;5411;58.386;15.560;2023-03-20T08:23:17;99728.66;;;10.05;100.00
10720;BME280;5411;58.386;15.560;2023-03-20T08:25:48;99725.16;;;10.05;100.00
10720;BME280;5411;58.386;15.560;2023-03-20T08:28:17;99725.38;;;10.03;100.00
10720;BME280;5411;58.386;15.560;2023-03-20T08:30:46;99728.88;;;10.04;100.00
10720;BME280;5411;58.386;15.560;2023-03-20T08:33:15;99726.81;;;10.06;100.00
10720;BME280;5411;58.386;15.560;2023-03-20T08:35:54;99722.22;;;10.13;100.00
10720;BME280;5411;58.386;15.560;2023-03-20T08:38:23;99731.47;;;10.17;100.00
10720;BME280;5411;58.386;15.560;2023-03-20T08:40:53;99722.22;;;10.19;100.00
10720;BME280;5411;58.386;15.560;2023-03-20T08:43:21;99715.84;;;10.20;100.00
10720;BME280;5411;58.386;15.560;2023-03-20T08:45:50;99720.31;;;10.26;100.00
10720;BME280;5411;58.386;15.560;2023-03-20T08:48:18;99715.97;;;10.32;100.00
10720;BME280;5411;58.386;15.560;2023-03-20T08:50:46;99718.00;;;10.37;100.00
10720;BME280;5411;58.386;15.560;2023-03-20T08:53:14;99717.34;;;10.41;100.00
10720;BME280;5411;58.386;15.560;2023-03-20T08:55:46;99707.22;;;10.50;100.00
10720;BME280;5411;58.386;15.560;2023-03-20T08:58:17;99697.66;;;10.60;100.00
10720;BME280;5411;58.386;15.560;2023-03-20T09:00:45;99690.97;;;10.69;100.00
10720;BME280;5411;58.386;15.560;2023-03-20T09:03:15;99696.63;;;10.80;100.00
10720;BME280;5411;58.386;15.560;2023-03-20T09:05:47;99689.38;;;10.87;100.00
10720;BME280;5411;58.386;15.560;2023-03-20T09:08:18;99691.97;;;10.93;100.00
10720;BME280;5411;58.386;15.560;2023-03-20T09:10:47;99689.88;;;10.95;100.00
10720;BME280;5411;58.386;15.560;2023-03-20T09:13:20;99685.78;;;10.93;100.00
10720;BME280;5411;58.386;15.560;2023-03-20T09:15:54;99691.38;;;10.91;100.00
10720;BME280;5411;58.386;15.560;2023-03-20T09:18:23;99685.66;;;10.88;100.00
10720;BME280;5411;58.386;15.560;2023-03-20T09:20:51;99698.66;;;10.84;100.00
10720;BME280;5411;58.386;15.560;2023-03-20T09:23:19;99693.91;;;10.86;100.00
10720;BME280;5411;58.386;15.560;2023-03-20T09:25:48;99693.25;;;10.91;100.00
10720;BME280;5411;58.386;15.560;2023-03-20T09:28:16;99688.03;;;10.96;100.00
10720;BME280;5411;58.386;15.560;2023-03-20T09:30:46;99693.13;;;11.04;100.00
10720;BME280;5411;58.386;15.560;2023-03-20T09:33:14;99694.59;;;11.18;100.00
10720;BME280;5411;58.386;15.560;2023-03-20T09:35:44;99696.06;;;11.32;100.00
10720;BME280;5411;58.386;15.560;2023-03-20T09:38:12;99688.25;;;11.49;100.00
10720;BME280;5411;58.386;15.560;2023-03-20T09:40:49;99687.19;;;11.68;100.00
10720;BME280;5411;58.386;15.560;2023-03-20T09:43:31;99693.06;;;11.77;100.00
10720;BME280;5411;58.386;15.560;2023-03-20T09:46:15;99683.81;;;11.73;100.00
10720;BME280;5411;58.386;15.560;2023-03-20T09:49:06;99683.16;;;11.59;100.00
10720;BME280;5411;58.386;15.560;2023-03-20T09:51:41;99690.09;;;11.49;100.00
10720;BME280;5411;58.386;15.560;2023-03-20T09:54:18;99690.63;;;11.39;100.00
10720;BME280;5411;58.386;15.560;2023-03-20T09:56:49;99683.59;;;11.26;100.00
10720;BME280;5411;58.386;15.560;2023-03-20T09:59:18;99676.09;;;11.17;100.00
10720;BME280;5411;58.386;15.560;2023-03-20T10:01:51;99692.06;;;11.05;100.00
10720;BME280;5411;58.386;15.560;2023-03-20T10:04:20;99678.00;;;10.91;100.00
10720;BME280;5411;58.386;15.560;2023-03-20T10:06:52;99675.16;;;10.86;100.00
10720;BME280;5411;58.386;15.560;2023-03-20T10:09:23;99684.28;;;10.79;100.00
10720;BME280;5411;58.386;15.560;2023-03-20T10:12:12;99684.19;;;10.67;100.00
10720;BME280;5411;58.386;15.560;2023-03-20T10:14:52;99689.00;;;10.58;100.00
10720;BME280;5411;58.386;15.560;2023-03-20T10:17:42;99693.84;;;10.50;100.00
10720;BME280;5411;58.386;15.560;2023-03-20T10:20:27;99687.09;;;10.41;100.00
10720;BME280;5411;58.386;15.560;2023-03-20T10:23:04;99681.81;;;10.34;100.00
10720;BME280;5411;58.386;15.560;2023-03-20T10:25:38;99683.47;;;10.35;100.00
10720;BME280;5411;58.386;15.560;2023-03-20T10:28:11;99690.69;;;10.28;100.00
10720;BME280;5411;58.386;15.560;2023-03-20T10:30:50;99689.66;;;10.29;100.00
10720;BME280;5411;58.386;15.560;2023-03-20T10:33:34;99689.66;;;10.29;100.00
10720;BME280;5411;58.386;15.560;2023-03-20T10:36:14;99689.84;;;10.34;100.00
10720;BME280;5411;58.386;15.560;2023-03-20T10:38:50;99685.25;;;10.41;100.00
10720;BME280;5411;58.386;15.560;2023-03-20T10:41:27;99687.88;;;10.48;100.00
10720;BME280;5411;58.386;15.560;2023-03-20T10:43:59;99686.84;;;10.49;100.00
10720;BME280;5411;58.386;15.560;2023-03-20T10:46:30;99687.66;;;10.49;100.00
10720;BME280;5411;58.386;15.560;2023-03-20T10:49:04;99680.88;;;10.47;100.00
10720;BME280;5411;58.386;15.560;2023-03-20T10:51:40;99690.56;;;10.48;100.00
10720;BME280;5411;58.386;15.560;2023-03-20T10:54:20;99684.81;;;10.44;100.00
10720;BME280;5411;58.386;15.560;2023-03-20T10:56:51;99684.88;;;10.38;100.00
10720;BME280;5411;58.386;15.560;2023-03-20T10:59:23;99685.97;;;10.30;100.00
10720;BME280;5411;58.386;15.560;2023-03-20T11:01:53;99695.84;;;10.29;100.00
10720;BME280;5411;58.386;15.560;2023-03-20T11:04:23;99693.16;;;10.29;100.00
10720;BME280;5411;58.386;15.560;2023-03-20T11:06:56;99686.75;;;10.37;100.00
10720;BME280;5411;58.386;15.560;2023-03-20T11:09:26;99687.28;;;10.46;100.00
10720;BME280;5411;58.386;15.560;2023-03-20T11:11:58;99688.19;;;10.58;100.00
10720;BME280;5411;58.386;15.560;2023-03-20T11:14:32;99685.69;;;10.63;100.00
10720;BME280;5411;58.386;15.560;2023-03-20T11:17:02;99685.41;;;10.71;100.00
10720;BME280;5411;58.386;15.560;2023-03-20T11:19:34;99687.44;;;10.76;100.00
10720;BME280;5411;58.386;15.560;2023-03-20T11:22:07;99690.09;;;10.76;100.00
10720;BME280;5411;58.386;15.560;2023-03-20T11:24:42;99687.63;;;10.74;100.00
10720;BME280;5411;58.386;15.560;2023-03-20T11:27:14;99683.16;;;10.68;100.00
10720;BME280;5411;58.386;15.560;2023-03-20T11:29:46;99679.75;;;10.61;100.00
10720;BME280;5411;58.386;15.560;2023-03-20T11:32:21;99691.50;;;10.53;100.00
10720;BME280;5411;58.386;15.560;2023-03-20T11:34:55;99685.03;;;10.43;100.00
10720;BME280;5411;58.386;15.560;2023-03-20T11:37:25;99680.41;;;10.31;100.00
10720;BME280;5411;58.386;15.560;2023-03-20T11:40:12;99672.19;;;10.26;100.00
10720;BME280;5411;58.386;15.560;2023-03-20T11:42:51;99686.84;;;10.24;100.00
10720;BME280;5411;58.386;15.560;2023-03-20T11:45:20;99684.00;;;10.19;100.00
10720;BME280;5411;58.386;15.560;2023-03-20T11:47:49;99685.84;;;10.18;100.00
10720;BME280;5411;58.386;15.560;2023-03-20T11:50:30;99681.94;;;10.14;100.00
10720;BME280;5411;58.386;15.560;2023-03-20T11:53:00;99691.25;;;10.05;100.00
10720;BME280;5411;58.386;15.560;2023-03-20T11:55:30;99675.69;;;9.95;100.00
10720;BME280;5411;58.386;15.560;2023-03-20T11:58:00;99676.75;;;9.88;100.00
10720;BME280;5411;58.386;15.560;2023-03-20T12:00:35;99680.72;;;9.79;100.00
10720;BME280;5411;58.386;15.560;2023-03-20T12:06:25;99681.41;;;9.68;100.00
10720;BME280;5411;58.386;15.560;2023-03-20T12:08:59;99684.31;;;9.59;100.00
10720;BME280;5411;58.386;15.560;2023-03-20T12:11:42;99684.16;;;9.54;100.00
10720;BME280;5411;58.386;15.560;2023-03-20T12:14:33;99680.25;;;9.50;100.00
10720;BME280;5411;58.386;15.560;2023-03-20T12:17:34;99673.69;;;9.53;100.00
10720;BME280;5411;58.386;15.560;2023-03-20T12:20:12;99676.28;;;9.66;100.00
10720;BME280;5411;58.386;15.560;2023-03-20T12:22:49;99674.97;;;9.82;100.00
10720;BME280;5411;58.386;15.560;2023-03-20T12:25:22;99681.81;;;10.02;100.00
10720;BME280;5411;58.386;15.560;2023-03-20T12:28:00;99685.91;;;10.05;100.00
10720;BME280;5411;58.386;15.560;2023-03-20T12:30:35;99678.72;;;10.06;100.00
10720;BME280;5411;58.386;15.560;2023-03-20T12:33:14;99685.28;;;10.03;100.00
10720;BME280;5411;58.386;15.560;2023-03-20T12:35:46;99682.91;;;9.95;100.00
10720;BME280;5411;58.386;15.560;2023-03-20T12:38:23;99678.44;;;9.82;100.00
10720;BME280;5411;58.386;15.560;2023-03-20T12:40:57;99685.50;;;9.70;100.00
10720;BME280;5411;58.386;15.560;2023-03-20T12:43:35;99680.81;;;9.59;100.00
10720;BME280;5411;58.386;15.560;2023-03-20T12:46:13;99685.44;;;9.45;100.00
10720;BME280;5411;58.386;15.560;2023-03-20T12:48:54;99676.19;;;9.41;100.00
10720;BME280;5411;58.386;15.560;2023-03-20T12:51:34;99681.94;;;9.38;100.00
10720;BME280;5411;58.386;15.560;2023-03-20T12:54:15;99678.47;;;9.38;100.00
10720;BME280;5411;58.386;15.560;2023-03-20T12:56:57;99686.47;;;9.38;100.00
10720;BME280;5411;58.386;15.560;2023-03-20T12:59:40;99683.59;;;9.33;100.00
10720;BME280;5411;58.386;15.560;2023-03-20T13:02:24;99686.50;;;9.31;100.00
10720;BME280;5411;58.386;15.560;2023-03-20T13:05:04;99680.56;;;9.29;100.00
10720;BME280;5411;58.386;15.560;2023-03-20T13:07:41;99680.38;;;9.24;100.00
10720;BME280;5411;58.386;15.560;2023-03-20T13:10:19;99683.25;;;9.22;100.00
10720;BME280;5411;58.386;15.560;2023-03-20T13:13:02;99677.91;;;9.22;100.00
10720;BME280;5411;58.386;15.560;2023-03-20T13:15:47;99675.84;;;9.24;100.00
10720;BME280;5411;58.386;15.560;2023-03-20T13:18:18;99689.59;;;9.28;100.00
10720;BME280;5411;58.386;15.560;2023-03-20T13:20:50;99697.50;;;9.48;100.00
10720;BME280;5411;58.386;15.560;2023-03-20T13:23:22;99681.81;;;9.71;100.00
10720;BME280;5411;58.386;15.560;2023-03-20T13:26:03;99675.13;;;9.87;100.00
10720;BME280;5411;58.386;15.560;2023-03-20T13:28:40;99682.28;;;9.93;100.00
10720;BME280;5411;58.386;15.560;2023-03-20T13:31:30;99676.13;;;9.92;100.00
10720;BME280;5411;58.386;15.560;2023-03-20T13:34:10;99682.22;;;9.99;100.00
10720;BME280;5411;58.386;15.560;2023-03-20T13:36:49;99678.09;;;10.04;100.00